createdAt,value
2018-04-11T00:00:53.459Z,23.57
2018-04-11T00:03:22.503Z,22.93
2018-04-11T00:05:51.580Z,22.63
2018-04-11T00:08:20.658Z,24.80
2018-04-11T00:13:25.381Z,29.45
2018-04-11T00:18:30.130Z,27.27
2018-04-11T00:21:00.147Z,28.50
2018-04-11T00:23:29.214Z,23.13
2018-04-11T00:25:58.376Z,22.00
2018-04-11T00:28:38.527Z,21.63
2018-04-11T00:33:45.172Z,27.30
2018-04-11T00:36:14.255Z,28.75
2018-04-11T00:38:43.326Z,24.17
2018-04-11T00:41:12.754Z,23.83
2018-04-11T00:43:41.807Z,26.95
2018-04-11T00:46:10.864Z,24.47
2018-04-11T00:48:39.952Z,23.43
2018-04-11T00:51:09.142Z,21.73
2018-04-11T00:53:38.193Z,21.73
2018-04-11T00:58:42.941Z,27.05
2018-04-11T01:01:11.991Z,27.70
2018-04-11T01:06:17.796Z,26.40
2018-04-11T01:08:46.841Z,26.20
2018-04-11T01:13:51.679Z,25.70
2018-04-11T01:16:20.774Z,22.57
2018-04-11T01:18:49.970Z,20.70
2018-04-11T01:21:19.030Z,20.87
2018-04-11T01:23:48.092Z,19.90
2018-04-11T01:26:19.098Z,18.00
2018-04-11T01:28:48.155Z,17.63
2018-04-11T01:31:17.213Z,18.30
2018-04-11T01:33:46.256Z,18.70
2018-04-11T01:36:15.325Z,17.10
2018-04-11T01:38:44.371Z,18.03
2018-04-11T01:41:14.396Z,18.37
2018-04-11T01:43:43.450Z,18.27
2018-04-11T01:46:12.519Z,18.10
2018-04-11T01:48:41.596Z,18.80
2018-04-11T01:51:10.633Z,18.43
2018-04-11T01:53:39.784Z,16.83
2018-04-11T01:56:08.816Z,18.17
2018-04-11T01:58:37.943Z,18.57
2018-04-11T02:01:07.016Z,21.75
2018-04-11T02:03:36.085Z,19.67
2018-04-11T02:06:05.137Z,17.13
2018-04-11T02:08:34.183Z,18.43
2018-04-11T02:11:03.295Z,17.87
2018-04-11T02:13:32.359Z,16.97
2018-04-11T02:16:05.280Z,17.00
2018-04-11T02:18:34.316Z,16.60
2018-04-11T02:21:04.280Z,15.70
2018-04-11T02:23:33.330Z,14.80
2018-04-11T02:26:02.934Z,17.00
2018-04-11T02:28:31.980Z,15.03
2018-04-11T02:31:01.038Z,13.87
2018-04-11T02:33:30.098Z,16.85
2018-04-11T02:36:00.335Z,15.13
2018-04-11T02:38:29.419Z,16.23
2018-04-11T02:40:58.475Z,15.03
2018-04-11T02:43:27.523Z,17.87
2018-04-11T02:45:57.573Z,15.20
2018-04-11T02:51:03.636Z,12.80
2018-04-11T02:53:32.699Z,13.70
2018-04-11T02:56:01.812Z,11.20
2018-04-11T02:58:30.860Z,11.60
2018-04-11T03:01:00.835Z,12.70
2018-04-11T03:03:29.908Z,14.03
2018-04-11T03:05:58.998Z,13.40
2018-04-11T03:08:28.143Z,16.98
2018-04-11T03:10:59.194Z,16.92
2018-04-11T03:13:29.194Z,14.50
2018-04-11T03:15:58.351Z,12.97
2018-04-11T03:21:03.082Z,17.05
2018-04-11T03:23:32.171Z,18.17
2018-04-11T03:26:01.214Z,13.60
2018-04-11T03:31:06.085Z,18.15
2018-04-11T03:33:35.114Z,14.57
2018-04-11T03:36:05.113Z,18.05
2018-04-11T03:38:34.328Z,18.62
2018-04-11T03:41:03.379Z,15.40
2018-04-11T03:43:32.416Z,14.50
2018-04-11T03:46:01.509Z,18.05
2018-04-11T03:48:30.592Z,15.10
2018-04-11T03:51:00.702Z,14.40
2018-04-11T03:56:08.615Z,18.70
2018-04-11T03:58:37.668Z,15.80
2018-04-11T04:01:07.710Z,15.50
2018-04-11T04:03:36.754Z,16.00
2018-04-11T04:08:41.550Z,19.75
2018-04-11T04:11:11.608Z,16.97
2018-04-11T04:13:58.879Z,15.60
2018-04-11T04:16:49.214Z,16.60
2018-04-11T04:19:36.145Z,16.67
2018-04-11T04:22:05.199Z,18.60
2018-04-11T04:24:34.257Z,18.30
2018-04-11T04:27:03.319Z,18.40
2018-04-11T04:29:32.468Z,19.00
2018-04-11T04:32:01.571Z,18.70
2018-04-11T04:34:30.614Z,18.43
2018-04-11T04:36:59.672Z,18.47
2018-04-11T04:42:04.953Z,23.60
2018-04-11T04:44:34.162Z,19.13
2018-04-11T04:47:03.250Z,18.73
2018-04-11T04:49:32.301Z,17.20
2018-04-11T04:52:01.479Z,15.70
2018-04-11T04:54:30.539Z,17.30
2018-04-11T04:56:59.610Z,19.42
2018-04-11T04:59:28.716Z,16.50
2018-04-11T05:01:58.977Z,15.57
2018-04-11T05:07:03.947Z,20.35
2018-04-11T05:09:33.006Z,16.27
2018-04-11T05:12:03.013Z,21.02
2018-04-11T05:14:32.382Z,16.90
2018-04-11T05:17:01.415Z,16.60
2018-04-11T05:19:31.430Z,14.60
2018-04-11T05:22:01.305Z,16.10
2018-04-11T05:24:30.370Z,16.23
2018-04-11T05:26:59.639Z,16.20
2018-04-11T05:29:29.060Z,16.33
2018-04-11T05:31:58.083Z,14.90
2018-04-11T05:34:28.078Z,19.90
2018-04-11T05:36:57.135Z,17.60
2018-04-11T05:39:26.184Z,18.67
2018-04-11T05:41:55.850Z,15.87
2018-04-11T05:44:24.903Z,15.50
2018-04-11T05:46:53.974Z,21.00
2018-04-11T05:49:23.472Z,17.47
2018-04-11T05:54:28.263Z,19.98
2018-04-11T05:56:57.351Z,17.60
2018-04-11T05:59:26.585Z,18.43
2018-04-11T06:01:55.635Z,16.87
2018-04-11T06:04:25.052Z,17.70
2018-04-11T06:06:54.106Z,15.33
2018-04-11T06:09:23.166Z,16.20
2018-04-11T06:11:52.714Z,19.40
2018-04-11T06:14:21.770Z,16.40
2018-04-11T06:16:51.040Z,19.62
2018-04-11T06:19:20.090Z,16.40
2018-04-11T06:21:49.136Z,18.20
2018-04-11T06:24:18.876Z,13.83
2018-04-11T06:26:47.935Z,15.80
2018-04-11T06:29:17.561Z,15.73
2018-04-11T06:31:46.612Z,17.62
2018-04-11T06:34:15.867Z,17.50
2018-04-11T06:36:45.063Z,17.40
2018-04-11T06:39:14.097Z,13.97
2018-04-11T06:41:43.570Z,13.20
2018-04-11T06:44:12.638Z,13.17
2018-04-11T06:46:42.235Z,13.00
2018-04-11T06:51:47.126Z,15.65
2018-04-11T06:54:16.844Z,15.70
2018-04-11T06:56:45.885Z,15.02
2018-04-11T07:01:50.662Z,13.05
2018-04-11T07:04:20.038Z,13.80
2018-04-11T07:06:49.762Z,11.33
2018-04-11T07:09:18.991Z,10.80
2018-04-11T07:11:48.058Z,10.00
2018-04-11T07:14:17.136Z,9.40
2018-04-11T07:16:46.932Z,8.67
2018-04-11T07:19:15.970Z,8.37
2018-04-11T07:21:45.273Z,9.30
2018-04-11T07:26:50.588Z,9.38
2018-04-11T07:29:19.638Z,8.50
2018-04-11T07:31:48.967Z,5.07
2018-04-11T07:34:18.005Z,5.47
2018-04-11T07:36:47.281Z,5.90
2018-04-11T07:41:52.785Z,4.97
2018-04-11T07:44:21.856Z,5.20
2018-04-11T07:46:50.904Z,4.17
2018-04-11T07:49:20.005Z,5.10
2018-04-11T07:51:49.040Z,4.53
2018-04-11T07:56:53.922Z,3.50
2018-04-11T07:59:23.448Z,3.53
2018-04-11T08:04:28.219Z,3.87
2018-04-11T08:06:57.254Z,3.17
2018-04-11T08:09:26.408Z,3.27
2018-04-11T08:11:55.430Z,3.53
2018-04-11T08:14:25.923Z,3.30
2018-04-11T08:16:54.979Z,3.80
2018-04-11T08:24:35.540Z,3.73
2018-04-11T08:29:40.430Z,4.28
2018-04-11T08:32:13.369Z,4.63
2018-04-11T08:37:17.939Z,4.87
2018-04-11T08:39:47.634Z,5.33
2018-04-11T08:42:16.681Z,5.63
2018-04-11T08:44:46.194Z,5.00
2018-04-11T08:47:15.267Z,5.00
2018-04-11T08:49:44.308Z,5.10
2018-04-11T08:52:13.393Z,5.10
2018-04-11T08:54:43.019Z,4.75
2018-04-11T08:57:12.062Z,4.57
2018-04-11T08:59:41.134Z,5.70
2018-04-11T09:02:11.933Z,5.40
2018-04-11T09:04:41.008Z,5.57
2018-04-11T09:07:10.614Z,4.57
2018-04-11T09:09:39.661Z,5.13
2018-04-11T09:12:09.157Z,4.97
2018-04-11T09:14:38.206Z,5.10
2018-04-11T09:17:07.358Z,4.73
2018-04-11T09:19:36.472Z,4.60
2018-04-11T09:22:05.530Z,5.20
2018-04-11T09:24:35.163Z,3.90
2018-04-11T09:29:46.380Z,4.50
2018-04-11T09:34:58.099Z,3.50
2018-04-11T09:37:31.382Z,3.00
2018-04-11T09:40:04.998Z,2.60
2018-04-11T09:42:34.020Z,2.80
2018-04-11T09:45:07.718Z,3.70
2018-04-11T09:47:37.166Z,3.67
2018-04-11T09:50:09.899Z,4.40
2018-04-11T09:52:42.447Z,3.90
2018-04-11T09:57:56.167Z,3.40
2018-04-11T10:00:30.696Z,3.73
2018-04-11T10:03:08.696Z,3.50
2018-04-11T10:05:38.375Z,2.87
2018-04-11T10:08:07.426Z,3.27
2018-04-11T10:10:37.019Z,3.43
2018-04-11T10:15:42.267Z,3.75
2018-04-11T10:19:18.795Z,3.62
2018-04-11T10:21:47.866Z,2.97
2018-04-11T10:24:18.207Z,3.80
2018-04-11T10:26:47.289Z,3.27
2018-04-11T10:29:16.982Z,4.20
2018-04-11T10:36:58.007Z,3.72
2018-04-11T10:42:05.016Z,3.00
2018-04-11T10:44:34.051Z,3.10
2018-04-11T10:47:04.062Z,3.33
2018-04-11T10:49:33.443Z,3.13
2018-04-11T10:52:02.479Z,3.50
2018-04-11T10:57:07.338Z,3.90
2018-04-11T10:59:38.177Z,4.30
2018-04-11T11:02:10.447Z,3.47
2018-04-11T11:07:15.719Z,5.40
2018-04-11T11:09:45.295Z,4.40
2018-04-11T11:12:14.506Z,4.30
2018-04-11T11:17:19.372Z,3.60
2018-04-11T11:22:24.343Z,4.00
2018-04-11T11:27:29.187Z,3.80
2018-04-11T11:29:58.289Z,4.05
2018-04-11T11:32:27.337Z,3.60
2018-04-11T11:34:57.295Z,3.00
2018-04-11T11:37:26.357Z,3.33
2018-04-11T11:39:55.419Z,4.07
2018-04-11T11:42:24.477Z,4.63
2018-04-11T11:44:54.037Z,3.70
2018-04-11T11:47:23.100Z,4.37
2018-04-11T11:49:52.619Z,4.87
2018-04-11T11:52:22.972Z,3.10
2018-04-11T11:54:53.027Z,3.60
2018-04-11T11:57:22.139Z,3.97
2018-04-11T11:59:52.852Z,3.80
2018-04-11T12:02:21.921Z,4.77
2018-04-11T12:04:51.273Z,4.20
2018-04-11T12:07:24.607Z,3.70
2018-04-11T12:09:57.995Z,5.03
2018-04-11T12:12:29.439Z,3.77
2018-04-11T12:15:02.562Z,4.30
2018-04-11T12:20:12.331Z,4.05
2018-04-11T12:22:45.894Z,3.73
2018-04-11T12:25:14.926Z,3.40
2018-04-11T12:27:43.999Z,3.50
2018-04-11T12:30:13.681Z,3.40
2018-04-11T12:32:42.774Z,3.40
2018-04-11T12:35:12.241Z,3.57
2018-04-11T12:37:41.303Z,3.20
2018-04-11T12:40:10.742Z,3.57
2018-04-11T12:42:39.816Z,3.87
2018-04-11T12:45:08.926Z,3.27
2018-04-11T12:47:38.437Z,3.80
2018-04-11T12:50:07.512Z,3.47
2018-04-11T12:52:37.119Z,3.10
2018-04-11T12:55:06.312Z,2.77
2018-04-11T13:00:11.223Z,3.20
2018-04-11T13:02:40.270Z,3.17
2018-04-11T13:05:09.668Z,3.30
2018-04-11T13:10:14.623Z,2.90
2018-04-11T13:12:44.720Z,2.33
2018-04-11T13:17:49.639Z,3.15
2018-04-11T13:20:19.312Z,3.33
2018-04-11T13:22:48.366Z,4.07
2018-04-11T13:25:17.416Z,2.90
2018-04-11T13:27:46.464Z,3.83
2018-04-11T13:30:15.514Z,4.33
2018-04-11T13:32:45.058Z,3.17
2018-04-11T13:35:14.083Z,3.50
2018-04-11T13:37:43.794Z,3.30
2018-04-11T13:40:12.855Z,3.40
2018-04-11T13:42:41.955Z,4.05
2018-04-11T13:45:10.958Z,2.90
2018-04-11T13:47:40.649Z,3.17
2018-04-11T13:50:10.234Z,3.23
2018-04-11T13:55:20.704Z,3.75
2018-04-11T13:57:54.425Z,3.17
2018-04-11T14:00:27.319Z,2.90
2018-04-11T14:02:59.293Z,3.90
2018-04-11T14:05:32.124Z,4.28
2018-04-11T14:08:04.920Z,3.80
2018-04-11T14:10:37.578Z,3.70
2018-04-11T14:13:10.103Z,3.20
2018-04-11T14:18:19.554Z,3.10
2018-04-11T14:20:52.725Z,3.50
2018-04-11T14:23:26.496Z,4.00
2018-04-11T14:25:55.798Z,3.80
2018-04-11T14:28:24.851Z,3.87
2018-04-11T14:33:30.523Z,4.95
2018-04-11T14:35:59.582Z,4.53
2018-04-11T14:41:04.550Z,4.70
2018-04-11T14:43:34.099Z,4.57
2018-04-11T14:46:03.174Z,3.10
2018-04-11T14:48:32.215Z,3.50
2018-04-11T14:51:01.271Z,3.40
2018-04-11T14:56:06.646Z,4.47
2018-04-11T14:58:36.198Z,3.50
2018-04-11T15:01:05.228Z,3.57
2018-04-11T15:03:34.303Z,3.30
2018-04-11T15:08:39.492Z,3.60
2018-04-11T15:11:08.543Z,5.43
2018-04-11T15:13:38.104Z,3.40
2018-04-11T15:16:07.194Z,3.50
2018-04-11T15:18:36.241Z,2.90
2018-04-11T15:21:05.974Z,3.47
2018-04-11T15:23:34.998Z,3.57
2018-04-11T15:26:04.339Z,3.37
2018-04-11T15:28:33.384Z,3.40
2018-04-11T15:31:02.557Z,3.30
2018-04-11T15:33:32.468Z,3.23
2018-04-11T15:38:37.662Z,4.40
2018-04-11T15:41:06.688Z,4.63
2018-04-11T15:43:36.215Z,4.97
2018-04-11T15:48:42.695Z,5.05
2018-04-11T15:51:11.729Z,5.17
2018-04-11T15:53:40.785Z,5.75
2018-04-11T15:56:09.885Z,6.43
2018-04-11T15:58:39.479Z,6.63
2018-04-11T16:01:08.553Z,6.93
2018-04-11T16:03:37.953Z,7.43
2018-04-11T16:08:42.840Z,7.82
2018-04-11T16:11:12.988Z,8.53
2018-04-11T16:13:45.607Z,7.30
2018-04-11T16:16:16.131Z,7.33
2018-04-11T16:18:46.683Z,8.13
2018-04-11T16:21:16.281Z,7.40
2018-04-11T16:23:45.341Z,7.50
2018-04-11T16:26:14.502Z,6.50
2018-04-11T16:28:44.092Z,6.90
2018-04-11T16:31:13.217Z,6.93
2018-04-11T16:33:42.815Z,6.20
2018-04-11T16:36:11.868Z,6.60
2018-04-11T16:38:41.273Z,6.97
2018-04-11T16:41:10.791Z,7.20
2018-04-11T16:43:39.858Z,6.73
2018-04-11T16:46:09.354Z,7.27
2018-04-11T16:48:38.404Z,5.33
2018-04-11T16:51:07.832Z,5.30
2018-04-11T16:53:37.259Z,4.40
2018-04-11T16:56:06.288Z,4.23
2018-04-11T16:58:35.359Z,4.30
2018-04-11T17:01:04.386Z,4.90
2018-04-11T17:03:33.451Z,3.93
2018-04-11T17:06:02.842Z,4.37
2018-04-11T17:08:35.172Z,4.50
2018-04-11T17:11:04.226Z,5.20
2018-04-11T17:13:33.382Z,4.83
2018-04-11T17:16:02.438Z,5.40
2018-04-11T17:18:31.850Z,5.80
2018-04-11T17:21:18.801Z,5.50
2018-04-11T17:24:08.166Z,5.10
2018-04-11T17:26:54.988Z,5.90
2018-04-11T17:29:42.819Z,6.50
2018-04-11T17:34:48.197Z,6.33
2018-04-11T17:37:17.250Z,7.17
2018-04-11T17:39:46.313Z,6.33
2018-04-11T17:42:15.371Z,7.47
2018-04-11T17:44:44.734Z,7.10
2018-04-11T17:47:13.816Z,6.33
2018-04-11T17:49:42.868Z,6.87
2018-04-11T17:52:12.285Z,6.70
2018-04-11T17:54:41.557Z,7.10
2018-04-11T17:59:46.376Z,7.50
2018-04-11T18:02:17.719Z,7.53
2018-04-11T18:04:46.754Z,7.73
2018-04-11T18:07:15.813Z,8.33
2018-04-11T18:09:44.901Z,10.33
2018-04-11T18:12:15.181Z,9.70
2018-04-11T18:14:44.226Z,8.90
2018-04-11T18:19:50.251Z,9.97
2018-04-11T18:24:55.201Z,10.57
2018-04-11T18:27:24.498Z,10.73
2018-04-11T18:32:29.382Z,11.07
2018-04-11T18:35:00.471Z,11.10
2018-04-11T18:37:29.522Z,9.87
2018-04-11T18:39:58.599Z,10.70
2018-04-11T18:42:27.664Z,11.20
2018-04-11T18:44:56.941Z,10.40
2018-04-11T18:47:26.013Z,9.10
2018-04-11T18:49:55.099Z,11.17
2018-04-11T18:52:24.139Z,10.40
2018-04-11T18:54:54.171Z,10.67
2018-04-11T18:59:59.029Z,10.40
2018-04-11T19:07:39.586Z,10.90
2018-04-11T19:10:08.727Z,10.57
2018-04-11T19:12:37.789Z,10.93
2018-04-11T19:15:07.035Z,11.33
2018-04-11T19:17:36.137Z,11.00
2018-04-11T19:20:05.249Z,10.47
2018-04-11T19:25:10.491Z,10.47
2018-04-11T19:27:39.525Z,9.27
2018-04-11T19:30:21.084Z,9.37
2018-04-11T19:32:51.016Z,10.03
2018-04-11T19:35:20.114Z,9.60
2018-04-11T19:37:49.214Z,8.90
2018-04-11T19:40:18.271Z,9.90
2018-04-11T19:42:47.329Z,9.70
2018-04-11T19:45:16.388Z,9.43
2018-04-11T19:47:45.537Z,9.83
2018-04-11T19:50:14.676Z,9.50
2018-04-11T19:52:44.625Z,9.47
2018-04-11T19:55:13.779Z,8.83
2018-04-11T19:57:42.874Z,9.20
2018-04-11T20:00:12.019Z,10.70
2018-04-11T20:02:48.497Z,10.50
2018-04-11T20:05:29.549Z,9.73
2018-04-11T20:07:59.609Z,9.90
2018-04-11T20:10:28.731Z,9.33
2018-04-11T20:12:57.809Z,9.63
2018-04-11T20:18:02.722Z,10.40
2018-04-11T20:20:32.018Z,10.07
2018-04-11T20:23:01.377Z,10.27
2018-04-11T20:25:30.515Z,10.77
2018-04-11T20:27:59.932Z,10.00
2018-04-11T20:30:29.051Z,9.80
2018-04-11T20:35:34.019Z,10.63
2018-04-11T20:38:05.501Z,10.52
2018-04-11T20:40:34.736Z,10.60
2018-04-11T20:43:03.809Z,10.73
2018-04-11T20:45:34.440Z,10.40
2018-04-11T20:48:03.635Z,9.80
2018-04-11T20:50:32.726Z,10.70
2018-04-11T20:53:02.718Z,10.87
2018-04-11T20:55:32.006Z,9.37
2018-04-11T20:58:03.132Z,10.00
2018-04-11T21:00:32.202Z,10.63
2018-04-11T21:05:37.232Z,11.00
2018-04-11T21:08:10.804Z,11.80
2018-04-11T21:10:40.002Z,10.07
2018-04-11T21:13:09.099Z,9.20
2018-04-11T21:15:38.166Z,11.37
2018-04-11T21:18:07.914Z,10.07
2018-04-11T21:20:36.970Z,11.20
2018-04-11T21:25:41.827Z,10.80
2018-04-11T21:28:11.875Z,10.17
2018-04-11T21:30:41.022Z,11.17
2018-04-11T21:33:10.186Z,10.90
2018-04-11T21:35:39.256Z,10.50
2018-04-11T21:38:08.423Z,11.83
2018-04-11T21:40:37.562Z,9.30
2018-04-11T21:43:07.632Z,11.30
2018-04-11T21:45:36.680Z,11.70
2018-04-11T21:48:05.750Z,11.17
2018-04-11T21:50:34.986Z,12.23
2018-04-11T21:53:05.104Z,10.60
2018-04-11T21:55:34.198Z,11.88
2018-04-11T22:00:39.022Z,11.70
2018-04-11T22:03:11.379Z,11.93
2018-04-11T22:05:40.471Z,11.43
2018-04-11T22:08:09.544Z,12.97
2018-04-11T22:10:38.621Z,11.00
2018-04-11T22:13:07.806Z,12.00
2018-04-11T22:15:37.003Z,11.25
2018-04-11T22:20:41.851Z,12.50
2018-04-11T22:25:46.752Z,12.30
2018-04-11T22:28:15.942Z,10.50
2018-04-11T22:30:45.058Z,10.43
2018-04-11T22:33:14.114Z,9.97
2018-04-11T22:35:43.240Z,9.00
2018-04-11T22:38:12.683Z,9.40
2018-04-11T22:40:41.726Z,9.87
2018-04-11T22:43:11.677Z,10.13
2018-04-11T22:45:40.767Z,8.73
2018-04-11T22:50:45.585Z,8.00
2018-04-11T22:53:14.705Z,6.57
2018-04-11T22:55:43.698Z,7.57
2018-04-11T22:58:13.682Z,7.87
2018-04-11T23:00:42.727Z,7.70
2018-04-11T23:03:11.930Z,8.55
2018-04-11T23:05:41.030Z,7.83
2018-04-11T23:10:45.860Z,8.10
2018-04-11T23:13:14.923Z,7.07
2018-04-11T23:15:44.177Z,5.50
2018-04-11T23:18:13.317Z,4.85
2018-04-11T23:20:42.351Z,4.47
2018-04-11T23:23:11.396Z,4.80
2018-04-11T23:25:40.553Z,4.73
2018-04-11T23:28:09.642Z,4.40
2018-04-11T23:30:38.670Z,4.07
2018-04-11T23:35:43.513Z,4.23
2018-04-11T23:38:12.590Z,4.72
2018-04-11T23:40:41.639Z,3.93
2018-04-11T23:43:10.688Z,4.03
2018-04-11T23:45:39.767Z,4.57
2018-04-11T23:48:08.818Z,3.73
2018-04-11T23:50:37.873Z,3.60
2018-04-11T23:53:07.057Z,5.10
2018-04-11T23:55:36.129Z,3.47
2018-04-11T23:58:05.193Z,4.03
